sensor_id;sensor_type;location;lat;lon;timestamp;pressure;altitude;pressure_sealevel;temperature;humidity
43125;BME280;49182;50.788;7.318;2023-03-19T00:00:45;100416.56;;;9.19;88.94
43125;BME280;49182;50.788;7.318;2023-03-19T00:03:12;100468.69;;;9.46;89.04
43125;BME280;49182;50.788;7.318;2023-03-19T00:05:39;100457.84;;;9.40;88.85
43125;BME280;49182;50.788;7.318;2023-03-19T00:08:06;100434.50;;;9.25;88.67
43125;BME280;49182;50.788;7.318;2023-03-19T00:10:37;100459.53;;;9.41;88.95
43125;BME280;49182;50.788;7.318;2023-03-19T00:13:07;100484.81;;;9.53;88.85
43125;BME280;49182;50.788;7.318;2023-03-19T00:15:34;100463.69;;;9.43;88.50
43125;BME280;49182;50.788;7.318;2023-03-19T00:18:01;100423.88;;;9.16;88.53
43125;BME280;49182;50.788;7.318;2023-03-19T00:20:28;100487.22;;;9.56;88.73
43125;BME280;49182;50.788;7.318;2023-03-19T00:22:55;100423.88;;;9.16;88.57
43125;BME280;49182;50.788;7.318;2023-03-19T00:25:22;100461.44;;;9.39;88.71
43125;BME280;49182;50.788;7.318;2023-03-19T00:27:49;100409.13;;;9.04;88.63
43125;BME280;49182;50.788;7.318;2023-03-19T00:30:22;100383.94;;;8.90;88.79
43125;BME280;49182;50.788;7.318;2023-03-19T00:33:04;100484.69;;;9.54;88.80
43125;BME280;49182;50.788;7.318;2023-03-19T00:35:48;100452.13;;;9.34;89.04
43125;BME280;49182;50.788;7.318;2023-03-19T00:38:16;100483.03;;;9.53;88.76
43125;BME280;49182;50.788;7.318;2023-03-19T00:41:06;100471.22;;;9.48;89.31
43125;BME280;49182;50.788;7.318;2023-03-19T00:43:35;100461.44;;;9.39;89.31
43125;BME280;49182;50.788;7.318;2023-03-19T00:46:08;100477.25;;;9.39;89.90
43125;BME280;49182;50.788;7.318;2023-03-19T00:48:49;100463.59;;;9.24;90.15
43125;BME280;49182;50.788;7.318;2023-03-19T00:51:19;100486.00;;;9.39;89.91
43125;BME280;49182;50.788;7.318;2023-03-19T00:54:13;100482.06;;;9.33;90.16
43125;BME280;49182;50.788;7.318;2023-03-19T00:56:43;100465.09;;;9.26;90.17
43125;BME280;49182;50.788;7.318;2023-03-19T00:59:22;100455.50;;;9.16;90.50
43125;BME280;49182;50.788;7.318;2023-03-19T01:01:59;100481.13;;;9.34;90.27
43125;BME280;49182;50.788;7.318;2023-03-19T01:04:29;100481.94;;;9.35;90.36
43125;BME280;49182;50.788;7.318;2023-03-19T01:06:56;100479.13;;;9.27;90.87
43125;BME280;49182;50.788;7.318;2023-03-19T01:09:24;100472.44;;;9.23;90.92
43125;BME280;49182;50.788;7.318;2023-03-19T01:11:51;100475.66;;;9.26;90.87
43125;BME280;49182;50.788;7.318;2023-03-19T01:14:18;100478.03;;;9.29;90.61
43125;BME280;49182;50.788;7.318;2023-03-19T01:16:44;100481.25;;;9.33;90.52
43125;BME280;49182;50.788;7.318;2023-03-19T01:19:13;100476.81;;;9.33;90.51
43125;BME280;49182;50.788;7.318;2023-03-19T01:21:39;100470.56;;;9.34;90.56
43125;BME280;49182;50.788;7.318;2023-03-19T01:24:06;100475.28;;;9.31;90.73
43125;BME280;49182;50.788;7.318;2023-03-19T01:26:33;100433.25;;;9.09;90.84
43125;BME280;49182;50.788;7.318;2023-03-19T01:29:12;100484.16;;;9.30;90.79
43125;BME280;49182;50.788;7.318;2023-03-19T01:31:39;100482.91;;;9.34;90.70
43125;BME280;49182;50.788;7.318;2023-03-19T01:34:23;100488.47;;;9.31;90.59
43125;BME280;49182;50.788;7.318;2023-03-19T01:36:54;100493.56;;;9.32;90.66
43125;BME280;49182;50.788;7.318;2023-03-19T01:39:28;100485.56;;;9.34;90.47
43125;BME280;49182;50.788;7.318;2023-03-19T01:42:00;100489.97;;;9.33;90.67
43125;BME280;49182;50.788;7.318;2023-03-19T01:44:44;100486.50;;;9.33;90.51
43125;BME280;49182;50.788;7.318;2023-03-19T01:47:38;100483.19;;;9.31;90.53
43125;BME280;49182;50.788;7.318;2023-03-19T01:50:20;100485.66;;;9.32;90.55
43125;BME280;49182;50.788;7.318;2023-03-19T01:52:54;100479.31;;;9.35;90.47
43125;BME280;49182;50.788;7.318;2023-03-19T01:55:28;100485.31;;;9.37;90.32
43125;BME280;49182;50.788;7.318;2023-03-19T01:58:19;100482.19;;;9.32;90.59
43125;BME280;49182;50.788;7.318;2023-03-19T02:01:10;100483.03;;;9.32;90.44
43125;BME280;49182;50.788;7.318;2023-03-19T02:03:41;100480.06;;;9.26;90.65
43125;BME280;49182;50.788;7.318;2023-03-19T02:06:24;100473.53;;;9.20;90.74
43125;BME280;49182;50.788;7.318;2023-03-19T02:08:52;100481.31;;;9.22;90.96
43125;BME280;49182;50.788;7.318;2023-03-19T02:11:19;100475.03;;;9.13;91.46
43125;BME280;49182;50.788;7.318;2023-03-19T02:13:47;100482.78;;;9.15;91.12
43125;BME280;49182;50.788;7.318;2023-03-19T02:16:14;100486.38;;;9.14;91.29
43125;BME280;49182;50.788;7.318;2023-03-19T02:18:41;100466.34;;;9.02;91.38
43125;BME280;49182;50.788;7.318;2023-03-19T02:21:10;100486.66;;;9.11;91.48
43125;BME280;49182;50.788;7.318;2023-03-19T02:23:44;100488.13;;;9.04;91.71
43125;BME280;49182;50.788;7.318;2023-03-19T02:26:19;100487.66;;;8.99;91.79
43125;BME280;49182;50.788;7.318;2023-03-19T02:28:50;100486.13;;;8.96;91.87
43125;BME280;49182;50.788;7.318;2023-03-19T02:31:23;100459.19;;;8.72;91.65
43125;BME280;49182;50.788;7.318;2023-03-19T02:33:57;100490.22;;;8.89;91.58
43125;BME280;49182;50.788;7.318;2023-03-19T02:36:26;100493.00;;;8.87;91.55
43125;BME280;49182;50.788;7.318;2023-03-19T02:38:56;100487.84;;;8.86;91.54
43125;BME280;49182;50.788;7.318;2023-03-19T02:41:25;100484.31;;;8.76;91.87
43125;BME280;49182;50.788;7.318;2023-03-19T02:43:53;100489.81;;;8.73;91.76
43125;BME280;49182;50.788;7.318;2023-03-19T02:46:20;100449.13;;;8.45;91.68
43125;BME280;49182;50.788;7.318;2023-03-19T02:48:47;100472.38;;;8.61;92.20
43125;BME280;49182;50.788;7.318;2023-03-19T02:51:13;100491.53;;;8.63;92.33
43125;BME280;49182;50.788;7.318;2023-03-19T02:53:40;100461.69;;;8.41;92.42
43125;BME280;49182;50.788;7.318;2023-03-19T02:56:07;100480.84;;;8.64;92.93
43125;BME280;49182;50.788;7.318;2023-03-19T02:58:35;100485.06;;;8.67;93.26
43125;BME280;49182;50.788;7.318;2023-03-19T03:01:02;100483.75;;;8.61;93.37
43125;BME280;49182;50.788;7.318;2023-03-19T03:03:30;100481.13;;;8.61;93.16
43125;BME280;49182;50.788;7.318;2023-03-19T03:05:56;100477.53;;;8.62;92.58
43125;BME280;49182;50.788;7.318;2023-03-19T03:08:23;100478.88;;;8.57;92.83
43125;BME280;49182;50.788;7.318;2023-03-19T03:10:50;100480.06;;;8.52;92.90
43125;BME280;49182;50.788;7.318;2023-03-19T03:13:16;100478.66;;;8.48;93.37
43125;BME280;49182;50.788;7.318;2023-03-19T03:15:44;100474.47;;;8.46;93.44
43125;BME280;49182;50.788;7.318;2023-03-19T03:18:11;100478.91;;;8.45;93.74
43125;BME280;49182;50.788;7.318;2023-03-19T03:20:38;100485.13;;;8.44;93.67
43125;BME280;49182;50.788;7.318;2023-03-19T03:23:04;100485.97;;;8.45;93.93
43125;BME280;49182;50.788;7.318;2023-03-19T03:25:31;100481.53;;;8.45;93.89
43125;BME280;49182;50.788;7.318;2023-03-19T03:27:57;100485.81;;;8.46;94.15
43125;BME280;49182;50.788;7.318;2023-03-19T03:30:24;100495.16;;;8.50;93.78
43125;BME280;49182;50.788;7.318;2023-03-19T03:32:52;100491.56;;;8.51;93.77
43125;BME280;49182;50.788;7.318;2023-03-19T03:35:19;100487.13;;;8.52;93.72
43125;BME280;49182;50.788;7.318;2023-03-19T03:37:46;100490.00;;;8.49;93.85
43125;BME280;49182;50.788;7.318;2023-03-19T03:40:13;100492.75;;;8.47;93.94
43125;BME280;49182;50.788;7.318;2023-03-19T03:42:40;100461.22;;;8.25;94.16
43125;BME280;49182;50.788;7.318;2023-03-19T03:45:08;100464.34;;;8.30;93.94
43125;BME280;49182;50.788;7.318;2023-03-19T03:47:35;100465.53;;;8.37;94.10
43125;BME280;49182;50.788;7.318;2023-03-19T03:50:05;100487.97;;;8.52;94.12
43125;BME280;49182;50.788;7.318;2023-03-19T03:52:32;100482.28;;;8.36;93.96
43125;BME280;49182;50.788;7.318;2023-03-19T03:54:59;100498.47;;;8.52;94.34
43125;BME280;49182;50.788;7.318;2023-03-19T03:57:26;100504.00;;;8.49;94.35
43125;BME280;49182;50.788;7.318;2023-03-19T03:59:54;100498.63;;;8.51;94.49
43125;BME280;49182;50.788;7.318;2023-03-19T04:02:22;100503.16;;;8.49;94.41
43125;BME280;49182;50.788;7.318;2023-03-19T04:04:48;100505.06;;;8.47;94.42
43125;BME280;49182;50.788;7.318;2023-03-19T04:07:16;100512.28;;;8.45;94.45
43125;BME280;49182;50.788;7.318;2023-03-19T04:09:46;100491.38;;;8.32;94.71
43125;BME280;49182;50.788;7.318;2023-03-19T04:12:13;100502.09;;;8.40;94.74
43125;BME280;49182;50.788;7.318;2023-03-19T04:14:41;100495.88;;;8.41;94.68
43125;BME280;49182;50.788;7.318;2023-03-19T04:17:08;100502.00;;;8.42;95.11
43125;BME280;49182;50.788;7.318;2023-03-19T04:19:36;100495.66;;;8.44;94.93
43125;BME280;49182;50.788;7.318;2023-03-19T04:22:03;100485.84;;;8.35;94.80
43125;BME280;49182;50.788;7.318;2023-03-19T04:24:32;100517.41;;;8.46;94.91
43125;BME280;49182;50.788;7.318;2023-03-19T04:26:59;100517.66;;;8.43;94.69
43125;BME280;49182;50.788;7.318;2023-03-19T04:29:26;100519.56;;;8.41;95.42
43125;BME280;49182;50.788;7.318;2023-03-19T04:31:52;100517.06;;;8.40;95.62
43125;BME280;49182;50.788;7.318;2023-03-19T04:34:19;100528.56;;;8.39;95.67
43125;BME280;49182;50.788;7.318;2023-03-19T04:36:45;100521.00;;;8.34;95.54
43125;BME280;49182;50.788;7.318;2023-03-19T04:39:12;100513.00;;;8.25;95.85
43125;BME280;49182;50.788;7.318;2023-03-19T04:41:40;100532.25;;;8.36;95.68
43125;BME280;49182;50.788;7.318;2023-03-19T04:44:26;100522.69;;;8.35;95.62
43125;BME280;49182;50.788;7.318;2023-03-19T04:46:53;100500.34;;;8.19;95.46
43125;BME280;49182;50.788;7.318;2023-03-19T04:49:21;100532.84;;;8.40;95.50
43125;BME280;49182;50.788;7.318;2023-03-19T04:51:49;100536.44;;;8.39;95.25
43125;BME280;49182;50.788;7.318;2023-03-19T04:54:16;100536.91;;;8.44;94.84
43125;BME280;49182;50.788;7.318;2023-03-19T04:56:44;100544.69;;;8.45;94.88
43125;BME280;49182;50.788;7.318;2023-03-19T04:59:11;100541.22;;;8.45;95.18
43125;BME280;49182;50.788;7.318;2023-03-19T05:01:37;100543.25;;;8.41;95.17
43125;BME280;49182;50.788;7.318;2023-03-19T05:04:07;100543.16;;;8.32;96.16
43125;BME280;49182;50.788;7.318;2023-03-19T05:06:35;100540.53;;;8.32;95.89
43125;BME280;49182;50.788;7.318;2023-03-19T05:09:03;100548.13;;;8.24;96.71
43125;BME280;49182;50.788;7.318;2023-03-19T05:11:30;100543.25;;;8.19;97.08
43125;BME280;49182;50.788;7.318;2023-03-19T05:14:16;100553.16;;;8.16;97.79
43125;BME280;49182;50.788;7.318;2023-03-19T05:17:00;100555.94;;;8.14;97.85
43125;BME280;49182;50.788;7.318;2023-03-19T05:19:36;100555.56;;;8.19;97.43
43125;BME280;49182;50.788;7.318;2023-03-19T05:22:03;100555.19;;;8.23;96.99
43125;BME280;49182;50.788;7.318;2023-03-19T05:24:29;100547.41;;;8.22;97.14
43125;BME280;49182;50.788;7.318;2023-03-19T05:26:57;100544.31;;;8.17;97.61
43125;BME280;49182;50.788;7.318;2023-03-19T05:29:28;100535.47;;;8.18;97.06
43125;BME280;49182;50.788;7.318;2023-03-19T05:32:15;100541.00;;;8.15;97.33
43125;BME280;49182;50.788;7.318;2023-03-19T05:34:43;100552.19;;;8.17;97.50
43125;BME280;49182;50.788;7.318;2023-03-19T05:37:10;100557.34;;;8.18;97.65
43125;BME280;49182;50.788;7.318;2023-03-19T05:39:37;100555.31;;;8.22;97.57
43125;BME280;49182;50.788;7.318;2023-03-19T05:42:07;100553.41;;;8.24;97.29
43125;BME280;49182;50.788;7.318;2023-03-19T05:44:35;100515.16;;;8.08;97.18
43125;BME280;49182;50.788;7.318;2023-03-19T05:47:17;100546.22;;;8.26;97.24
43125;BME280;49182;50.788;7.318;2023-03-19T05:49:51;100547.78;;;8.17;97.91
43125;BME280;49182;50.788;7.318;2023-03-19T05:52:18;100567.50;;;8.23;97.89
43125;BME280;49182;50.788;7.318;2023-03-19T05:54:46;100537.63;;;8.12;97.67
43125;BME280;49182;50.788;7.318;2023-03-19T05:57:27;100572.94;;;8.32;97.59
43125;BME280;49182;50.788;7.318;2023-03-19T06:00:09;100547.28;;;8.23;97.83
43125;BME280;49182;50.788;7.318;2023-03-19T06:02:36;100563.94;;;8.35;97.97
43125;BME280;49182;50.788;7.318;2023-03-19T06:05:19;100551.34;;;8.27;97.56
43125;BME280;49182;50.788;7.318;2023-03-19T06:07:46;100565.03;;;8.32;98.41
43125;BME280;49182;50.788;7.318;2023-03-19T06:10:23;100567.66;;;8.32;98.29
43125;BME280;49182;50.788;7.318;2023-03-19T06:12:53;100565.72;;;8.34;98.29
43125;BME280;49182;50.788;7.318;2023-03-19T06:15:39;100575.19;;;8.37;98.52
43125;BME280;49182;50.788;7.318;2023-03-19T06:18:21;100567.19;;;8.38;98.45
43125;BME280;49182;50.788;7.318;2023-03-19T06:20:47;100574.22;;;8.49;98.21
43125;BME280;49182;50.788;7.318;2023-03-19T06:23:16;100549.34;;;8.42;97.45
43125;BME280;49182;50.788;7.318;2023-03-19T06:25:43;100584.00;;;8.58;98.06
43125;BME280;49182;50.788;7.318;2023-03-19T06:28:09;100577.19;;;8.56;97.98
43125;BME280;49182;50.788;7.318;2023-03-19T06:30:42;100590.94;;;8.59;98.46
43125;BME280;49182;50.788;7.318;2023-03-19T06:33:35;100501.78;;;8.11;98.04
43125;BME280;49182;50.788;7.318;2023-03-19T06:36:03;100600.13;;;8.76;97.97
43125;BME280;49182;50.788;7.318;2023-03-19T06:38:31;100595.31;;;8.81;97.47
43125;BME280;49182;50.788;7.318;2023-03-19T06:40:58;100596.88;;;8.83;98.12
43125;BME280;49182;50.788;7.318;2023-03-19T06:43:25;100588.84;;;8.85;97.81
43125;BME280;49182;50.788;7.318;2023-03-19T06:45:53;100598.50;;;8.96;97.51
43125;BME280;49182;50.788;7.318;2023-03-19T06:48:19;100594.69;;;9.00;97.12
43125;BME280;49182;50.788;7.318;2023-03-19T06:50:46;100600.75;;;9.11;96.08
43125;BME280;49182;50.788;7.318;2023-03-19T06:53:13;100597.16;;;9.12;96.86
43125;BME280;49182;50.788;7.318;2023-03-19T06:55:40;100610.06;;;9.15;96.99
43125;BME280;49182;50.788;7.318;2023-03-19T06:58:06;100612.19;;;9.21;97.02
43125;BME280;49182;50.788;7.318;2023-03-19T07:00:33;100614.78;;;9.32;96.36
43125;BME280;49182;50.788;7.318;2023-03-19T07:03:01;100615.50;;;9.34;96.39
43125;BME280;49182;50.788;7.318;2023-03-19T07:05:28;100617.50;;;9.42;96.41
43125;BME280;49182;50.788;7.318;2023-03-19T07:07:55;100616.03;;;9.49;96.28
43125;BME280;49182;50.788;7.318;2023-03-19T07:10:22;100594.13;;;9.49;95.35
43125;BME280;49182;50.788;7.318;2023-03-19T07:12:48;100616.41;;;9.65;94.64
43125;BME280;49182;50.788;7.318;2023-03-19T07:15:15;100626.53;;;9.81;94.96
43125;BME280;49182;50.788;7.318;2023-03-19T07:17:42;100626.81;;;9.88;95.03
43125;BME280;49182;50.788;7.318;2023-03-19T07:20:13;100628.31;;;10.01;95.18
43125;BME280;49182;50.788;7.318;2023-03-19T07:22:40;100633.50;;;10.12;94.43
43125;BME280;49182;50.788;7.318;2023-03-19T07:25:07;100613.63;;;10.08;94.61
43125;BME280;49182;50.788;7.318;2023-03-19T07:27:33;100628.63;;;10.29;94.07
43125;BME280;49182;50.788;7.318;2023-03-19T07:30:00;100636.56;;;10.38;93.96
43125;BME280;49182;50.788;7.318;2023-03-19T07:32:27;100642.47;;;10.51;93.67
43125;BME280;49182;50.788;7.318;2023-03-19T07:34:53;100644.44;;;10.59;93.05
43125;BME280;49182;50.788;7.318;2023-03-19T07:37:21;100651.16;;;10.73;93.25
43125;BME280;49182;50.788;7.318;2023-03-19T07:39:48;100644.41;;;10.89;91.85
43125;BME280;49182;50.788;7.318;2023-03-19T07:42:15;100647.88;;;11.00;92.96
43125;BME280;49182;50.788;7.318;2023-03-19T07:44:41;100644.56;;;11.07;92.18
43125;BME280;49182;50.788;7.318;2023-03-19T07:47:08;100645.41;;;11.17;90.97
43125;BME280;49182;50.788;7.318;2023-03-19T07:49:53;100650.72;;;11.27;90.26
43125;BME280;49182;50.788;7.318;2023-03-19T07:52:21;100648.91;;;11.37;88.63
43125;BME280;49182;50.788;7.318;2023-03-19T07:54:48;100647.97;;;11.48;88.08
43125;BME280;49182;50.788;7.318;2023-03-19T07:57:14;100635.53;;;11.48;87.06
43125;BME280;49182;50.788;7.318;2023-03-19T07:59:42;100648.94;;;11.66;86.40
43125;BME280;49182;50.788;7.318;2023-03-19T08:02:09;100616.22;;;11.57;85.85
43125;BME280;49182;50.788;7.318;2023-03-19T08:04:36;100639.88;;;11.88;85.60
43125;BME280;49182;50.788;7.318;2023-03-19T08:07:03;100646.81;;;11.98;84.56
43125;BME280;49182;50.788;7.318;2023-03-19T08:09:31;100646.78;;;12.08;84.30
43125;BME280;49182;50.788;7.318;2023-03-19T08:11:57;100644.94;;;12.18;83.82
43125;BME280;49182;50.788;7.318;2023-03-19T08:14:24;100650.38;;;12.26;83.66
43125;BME280;49182;50.788;7.318;2023-03-19T08:16:51;100646.31;;;12.32;84.62
43125;BME280;49182;50.788;7.318;2023-03-19T08:19:18;100632.50;;;12.28;84.10
43125;BME280;49182;50.788;7.318;2023-03-19T08:21:44;100662.25;;;12.49;82.54
43125;BME280;49182;50.788;7.318;2023-03-19T08:24:11;100652.75;;;12.56;80.24
43125;BME280;49182;50.788;7.318;2023-03-19T08:26:39;100625.50;;;12.46;79.98
43125;BME280;49182;50.788;7.318;2023-03-19T08:29:06;100650.75;;;12.68;80.35
43125;BME280;49182;50.788;7.318;2023-03-19T08:31:32;100613.91;;;12.47;80.78
43125;BME280;49182;50.788;7.318;2023-03-19T08:33:59;100613.03;;;12.56;81.53
43125;BME280;49182;50.788;7.318;2023-03-19T08:36:26;100644.53;;;12.87;81.54
43125;BME280;49182;50.788;7.318;2023-03-19T08:38:52;100649.91;;;12.95;80.86
43125;BME280;49182;50.788;7.318;2023-03-19T08:41:19;100651.13;;;13.01;80.11
43125;BME280;49182;50.788;7.318;2023-03-19T08:43:48;100645.53;;;13.04;80.05
43125;BME280;49182;50.788;7.318;2023-03-19T08:46:14;100659.84;;;13.11;78.36
43125;BME280;49182;50.788;7.318;2023-03-19T08:48:41;100661.16;;;13.07;78.40
43125;BME280;49182;50.788;7.318;2023-03-19T08:51:09;100668.78;;;13.10;77.67
43125;BME280;49182;50.788;7.318;2023-03-19T08:53:37;100667.56;;;13.04;77.98
43125;BME280;49182;50.788;7.318;2023-03-19T08:56:06;100639.91;;;12.89;77.46
43125;BME280;49182;50.788;7.318;2023-03-19T08:58:33;100676.34;;;13.05;76.24
43125;BME280;49182;50.788;7.318;2023-03-19T09:01:02;100680.19;;;12.92;75.72
43125;BME280;49182;50.788;7.318;2023-03-19T09:03:29;100655.78;;;12.71;76.60
43125;BME280;49182;50.788;7.318;2023-03-19T09:05:57;100641.31;;;12.56;77.18
43125;BME280;49182;50.788;7.318;2023-03-19T09:08:24;100686.56;;;12.72;78.58
43125;BME280;49182;50.788;7.318;2023-03-19T09:10:50;100686.03;;;12.69;79.12
43125;BME280;49182;50.788;7.318;2023-03-19T09:13:17;100678.91;;;12.69;80.17
43125;BME280;49182;50.788;7.318;2023-03-19T09:15:44;100699.28;;;12.69;80.47
43125;BME280;49182;50.788;7.318;2023-03-19T09:18:12;100682.25;;;12.71;81.39
43125;BME280;49182;50.788;7.318;2023-03-19T09:20:38;100673.63;;;12.60;81.51
43125;BME280;49182;50.788;7.318;2023-03-19T09:23:05;100679.94;;;12.59;81.81
43125;BME280;49182;50.788;7.318;2023-03-19T09:25:31;100687.72;;;12.60;82.90
43125;BME280;49182;50.788;7.318;2023-03-19T09:27:59;100693.31;;;12.57;84.27
43125;BME280;49182;50.788;7.318;2023-03-19T09:30:25;100685.31;;;12.39;85.01
43125;BME280;49182;50.788;7.318;2023-03-19T09:32:52;100700.06;;;12.42;85.94
43125;BME280;49182;50.788;7.318;2023-03-19T09:35:20;100705.78;;;12.37;86.25
43125;BME280;49182;50.788;7.318;2023-03-19T09:37:47;100700.50;;;12.37;86.96
43125;BME280;49182;50.788;7.318;2023-03-19T09:40:21;100702.16;;;12.38;87.35
43125;BME280;49182;50.788;7.318;2023-03-19T09:42:58;100703.53;;;12.42;87.78
43125;BME280;49182;50.788;7.318;2023-03-19T09:45:26;100702.28;;;12.46;88.15
43125;BME280;49182;50.788;7.318;2023-03-19T09:47:57;100659.03;;;12.19;88.25
43125;BME280;49182;50.788;7.318;2023-03-19T09:50:28;100706.31;;;12.50;88.73
43125;BME280;49182;50.788;7.318;2023-03-19T09:52:57;100708.97;;;12.50;88.14
43125;BME280;49182;50.788;7.318;2023-03-19T09:55:37;100711.88;;;12.57;88.47
43125;BME280;49182;50.788;7.318;2023-03-19T09:58:11;100711.44;;;12.62;88.50
43125;BME280;49182;50.788;7.318;2023-03-19T10:00:39;100714.31;;;12.68;88.41
43125;BME280;49182;50.788;7.318;2023-03-19T10:03:16;100724.34;;;12.74;88.15
43125;BME280;49182;50.788;7.318;2023-03-19T10:05:51;100717.63;;;12.80;88.02
43125;BME280;49182;50.788;7.318;2023-03-19T10:08:36;100719.56;;;12.87;88.01
43125;BME280;49182;50.788;7.318;2023-03-19T10:11:16;100726.78;;;12.95;87.45
43125;BME280;49182;50.788;7.318;2023-03-19T10:13:54;100727.88;;;13.02;87.42
43125;BME280;49182;50.788;7.318;2023-03-19T10:16:24;100728.25;;;13.07;87.73
43125;BME280;49182;50.788;7.318;2023-03-19T10:18:53;100721.94;;;13.18;85.95
43125;BME280;49182;50.788;7.318;2023-03-19T10:21:25;100723.41;;;13.30;84.30
43125;BME280;49182;50.788;7.318;2023-03-19T10:23:56;100725.22;;;13.29;84.93
43125;BME280;49182;50.788;7.318;2023-03-19T10:26:28;100722.06;;;13.44;85.50
43125;BME280;49182;50.788;7.318;2023-03-19T10:29:00;100726.16;;;13.56;84.96
43125;BME280;49182;50.788;7.318;2023-03-19T10:31:29;100712.91;;;13.56;84.02
43125;BME280;49182;50.788;7.318;2023-03-19T10:34:12;100727.59;;;13.68;84.00
43125;BME280;49182;50.788;7.318;2023-03-19T10:36:41;100724.63;;;13.71;83.71
43125;BME280;49182;50.788;7.318;2023-03-19T10:39:07;100733.81;;;13.76;82.16
43125;BME280;49182;50.788;7.318;2023-03-19T10:41:43;100733.97;;;13.75;82.46
43125;BME280;49182;50.788;7.318;2023-03-19T10:44:20;100733.28;;;13.73;81.40
43125;BME280;49182;50.788;7.318;2023-03-19T10:46:50;100732.44;;;13.72;81.42
43125;BME280;49182;50.788;7.318;2023-03-19T10:49:17;100718.22;;;13.56;81.77
43125;BME280;49182;50.788;7.318;2023-03-19T10:51:45;100721.94;;;13.63;82.62
43125;BME280;49182;50.788;7.318;2023-03-19T10:54:20;100733.53;;;13.80;82.08
43125;BME280;49182;50.788;7.318;2023-03-19T10:56:48;100726.91;;;13.84;80.78
43125;BME280;49182;50.788;7.318;2023-03-19T10:59:21;100727.81;;;13.92;80.86
43125;BME280;49182;50.788;7.318;2023-03-19T11:01:48;100735.03;;;14.00;80.50
43125;BME280;49182;50.788;7.318;2023-03-19T11:04:17;100732.59;;;14.06;80.67
43125;BME280;49182;50.788;7.318;2023-03-19T11:06:49;100722.56;;;14.18;78.55
43125;BME280;49182;50.788;7.318;2023-03-19T11:09:20;100700.56;;;14.08;79.24
43125;BME280;49182;50.788;7.318;2023-03-19T11:11:50;100723.63;;;14.25;80.20
43125;BME280;49182;50.788;7.318;2023-03-19T11:14:20;100729.16;;;14.32;77.03
43125;BME280;49182;50.788;7.318;2023-03-19T11:17:04;100727.47;;;14.31;76.81
43125;BME280;49182;50.788;7.318;2023-03-19T11:19:32;100723.44;;;14.27;78.29
43125;BME280;49182;50.788;7.318;2023-03-19T11:22:11;100721.00;;;14.33;77.99
43125;BME280;49182;50.788;7.318;2023-03-19T11:24:41;100711.53;;;14.31;78.53
43125;BME280;49182;50.788;7.318;2023-03-19T11:27:13;100685.97;;;14.30;78.89
43125;BME280;49182;50.788;7.318;2023-03-19T11:29:41;100721.38;;;14.64;79.51
43125;BME280;49182;50.788;7.318;2023-03-19T11:32:32;100718.00;;;14.80;77.61
43125;BME280;49182;50.788;7.318;2023-03-19T11:35:07;100717.19;;;14.87;77.72
43125;BME280;49182;50.788;7.318;2023-03-19T11:37:49;100723.53;;;14.94;77.52
43125;BME280;49182;50.788;7.318;2023-03-19T11:40:21;100713.91;;;14.93;75.86
43125;BME280;49182;50.788;7.318;2023-03-19T11:43:03;100712.25;;;14.92;75.00
43125;BME280;49182;50.788;7.318;2023-03-19T11:45:34;100677.38;;;14.62;74.35
43125;BME280;49182;50.788;7.318;2023-03-19T11:48:28;100708.50;;;14.77;75.79
43125;BME280;49182;50.788;7.318;2023-03-19T11:51:02;100716.81;;;14.82;76.68
43125;BME280;49182;50.788;7.318;2023-03-19T11:53:37;100700.75;;;14.92;74.88
43125;BME280;49182;50.788;7.318;2023-03-19T11:56:14;100707.94;;;15.00;74.39
43125;BME280;49182;50.788;7.318;2023-03-19T11:59:12;100707.31;;;15.06;74.28
43125;BME280;49182;50.788;7.318;2023-03-19T12:02:06;100689.34;;;15.00;75.01
43125;BME280;49182;50.788;7.318;2023-03-19T12:04:48;100700.34;;;15.21;73.89
43125;BME280;49182;50.788;7.318;2023-03-19T12:07:24;100672.59;;;15.15;73.06
43125;BME280;49182;50.788;7.318;2023-03-19T12:10:02;100700.06;;;15.40;72.34
43125;BME280;49182;50.788;7.318;2023-03-19T12:12:35;100696.81;;;15.54;70.25
43125;BME280;49182;50.788;7.318;2023-03-19T12:15:13;100706.31;;;15.73;70.13
43125;BME280;49182;50.788;7.318;2023-03-19T12:17:53;100699.00;;;15.91;71.90
43125;BME280;49182;50.788;7.318;2023-03-19T12:20:35;100694.50;;;16.08;69.86
43125;BME280;49182;50.788;7.318;2023-03-19T12:23:11;100697.31;;;16.23;69.42
43125;BME280;49182;50.788;7.318;2023-03-19T12:25:53;100690.97;;;16.24;67.17
43125;BME280;49182;50.788;7.318;2023-03-19T12:28:25;100690.47;;;16.20;66.65
43125;BME280;49182;50.788;7.318;2023-03-19T12:33:50;100678.84;;;16.13;67.85
43125;BME280;49182;50.788;7.318;2023-03-19T12:36:21;100689.84;;;16.10;66.28
43125;BME280;49182;50.788;7.318;2023-03-19T12:38:52;100694.00;;;16.04;66.20
43125;BME280;49182;50.788;7.318;2023-03-19T12:41:23;100700.50;;;16.02;67.23
43125;BME280;49182;50.788;7.318;2023-03-19T12:43:53;100697.31;;;16.06;66.88
43125;BME280;49182;50.788;7.318;2023-03-19T12:46:23;100689.47;;;16.05;67.17
43125;BME280;49182;50.788;7.318;2023-03-19T12:48:52;100664.88;;;15.87;67.35
43125;BME280;49182;50.788;7.318;2023-03-19T12:51:23;100698.16;;;16.07;67.56
43125;BME280;49182;50.788;7.318;2023-03-19T12:53:55;100689.50;;;15.97;68.23
43125;BME280;49182;50.788;7.318;2023-03-19T12:56:30;100693.31;;;15.86;68.51
43125;BME280;49182;50.788;7.318;2023-03-19T12:59:01;100674.53;;;15.55;69.27
43125;BME280;49182;50.788;7.318;2023-03-19T13:01:34;100693.66;;;15.67;70.06
43125;BME280;49182;50.788;7.318;2023-03-19T13:04:07;100680.84;;;15.62;68.53
43125;BME280;49182;50.788;7.318;2023-03-19T13:06:40;100677.00;;;15.57;70.85
43125;BME280;49182;50.788;7.318;2023-03-19T13:09:15;100664.16;;;15.44;70.93
43125;BME280;49182;50.788;7.318;2023-03-19T13:11:50;100702.97;;;15.71;68.56
43125;BME280;49182;50.788;7.318;2023-03-19T13:14:24;100693.81;;;15.65;69.10
43125;BME280;49182;50.788;7.318;2023-03-19T13:16:57;100702.13;;;15.62;69.33